Racecast

Laurel Darragh

Davis (CA) · 12 · SFLCA D1SJS D1YOLO · Compare head to head

Athlete rating 125.4 2012 XC season
Best race 126.5 XC
Races 31
Seasons 5 2009 — 2013

RankedNation #11436·CA #3550·CA D1 #1813·SJS #316·SJS D1 #237·SFL #96·Team #45 ?

Speed rating — all races

Cross Country

XC speed rating

2012 XC 111.8

Davis (CA) · Grade 12

Date Meet Event Result Place Rating Difficulty PR/SR Flags
2012-11-03 Calaveras County Fairgrounds 4828m 21:53 9th · 2nd on team 116.0 +0.065 ★CR SR CSR RSR
2012-10-04 Granite Park 5000m 22:57.6 19th · 14th on team 107.6 +0.002 ★CR SR CSR RSR

2011 XC

Davis (CA) · Grade 11

Date Meet Event Result Place Rating Difficulty PR/SR Flags
2011-10-08 Woodward Park 5000m 25:25 235th · 7th on team +0.013 SR CSR

2010 XC 119.5

Davis (CA) · Grade 10

Date Meet Event Result Place Rating Difficulty PR/SR Flags
2010-11-13 Willow Hills Reservoir Course 5000m 21:46 57th · 6th on team 119.1 +0.045 ★CR CSR
2010-11-06 Calaveras County Fairgrounds 4828m 22:58 88th · 6th on team 111.6 +0.065 CR CSR
2010-10-23 Mt. San Antonio College 4715m 21:15 101st · 7th on team 115.1 +0.077 ★PR ★CR SR CSR
2010-10-09 Woodward Park 5000m 20:46 84th · 5th on team 121.3 +0.013 ★CR CSR
2010-09-25 Stanford University Golf Course 5000m 19:54 25th · 3rd on team 126.5 +0.002 ★PR ★CR ★R SR CSR RSR
2010-09-11 Granite Park 4828m 20:05 11th · 1st on team 121.8 +0.012 ★PR ★CR SR CSR RSR
2010-09-04 Lagoon Valley Park 3218m 14:06.4 3rd · 2nd on team 121.3 +0.121 ★CR SR CSR RSR

2009 XC 120.0

Davis (CA) · Grade 9

Date Meet Event Result Place Rating Difficulty PR/SR Flags
2009-11-14 Willow Hills Reservoir Course 3400m 14:00 1st · 1st on team 122.8 +0.043 ★PR ★CR R SR CSR RSR
2009-11-07 Calaveras County Fairgrounds 3218m 13:59 2nd · 2nd on team 119.5 +0.084 ★PR ★CR R SR CSR RSR
2009-10-17 Willow Hills Reservoir Course 3400m 14:40.2 5th · 1st on team 117.9 +0.043 PR CR R SR CSR RSR

Track & Field

TF speed rating

2013 TF 109.5

Davis (CA) · Grade 12

Date Meet Event Result Place Rating Difficulty PR/SR Flags
2013-05-08 DVC Championships 3200m 12:58.12 10th · 7th on team 112.5 -0.033 ★PR SR
2013-05-08 DVC Championships 1600m 6:05.83 13th · 8th on team 111.9 -0.033 SR
2013-04-24 DVC Meet: Elk Grove vs. Davis 3200m 14:33.3 1st · 1st on team 102.3 -0.026
2013-04-17 DVC Meet: Grant, Monterey Trail, Davis 1600m 6:09.43 8th · 6th on team 112.9 -0.026 SR RSR
2013-04-13 Halden Invitational 3200m 13:16.21 17th · 5th on team 111.9 -0.026 SR
2013-03-20 Battle of the Spade 3200m 13:27.85 6th · 6th on team 109.9 -0.026
2013-03-16 Depth Charge 3200m 13:29.91 8th · 2nd on team 110.4 -0.021
2013-03-06 St. Francis/Jesuit vs. Davis Sr. 3200m 13:17.79 11th · 6th on team 111.9 -0.026 SR RSR
2013-02-20 Blue vs. White Intrasquad 800m 3:00.84 14th · 14th on team 101.9 -0.026 ★PR SR RSR

2012 TF 110.4

Davis (CA) · Grade 11

Date Meet Event Result Place Rating Difficulty PR/SR Flags
2012-05-11 DVC Trials/Finals 3200m 14:07.42 9th · 5th on team 105.4 -0.026
2012-05-11 DVC Trials/Finals 1600m 6:31.1 11th · 7th on team 106.0 -0.026
2012-03-28 DVC Meet: Monterey Trail, Franklin, Davis 1600m 6:01.49 6th · 5th on team 114.6 -0.026 ★PR SR
2012-03-16 Battle for the Spade 1600m 6:20.28 10th · 8th on team 109.2 -0.026
2012-03-07 Jesuit, St. Francis, Davis Dual 1600m 6:07.24 6th · 3rd on team 113.4 -0.026 PR SR RSR
2012-03-07 Jesuit, St. Francis, Davis Dual 3200m 13:01.74 6th · 3rd on team 114.7 -0.026 PR SR RSR
2012-03-03 8th Annual Sacramento State Track Classic 1500m 5:41.31 46th · 4th on team 111.6 -0.032 ★PR SR RSR
2012-02-29 Blue/White Intrasquad 1600m 6:19.11 8th · 8th on team 109.7 -0.026 RSR
2012-02-24 Blue/White Intrasquad 1600m 6:19.11 8th · 8th on team 109.3 -0.026 PR SR RSR